sensor_id;sensor_type;location;lat;lon;timestamp;temperature;humidity
65472;DHT22;52068;50.710;14.492;2023-03-23T00:00:59;23.14;44.40
65472;DHT22;52068;50.710;14.492;2023-03-23T00:03:24;23.11;44.26
65472;DHT22;52068;50.710;14.492;2023-03-23T00:05:51;23.07;44.43
65472;DHT22;52068;50.710;14.492;2023-03-23T00:08:17;23.07;44.66
65472;DHT22;52068;50.710;14.492;2023-03-23T00:10:42;23.37;44.25
65472;DHT22;52068;50.710;14.492;2023-03-23T00:13:08;23.81;43.23
65472;DHT22;52068;50.710;14.492;2023-03-23T00:15:33;24.19;42.52
65472;DHT22;52068;50.710;14.492;2023-03-23T00:18:00;24.40;41.96
65472;DHT22;52068;50.710;14.492;2023-03-23T00:20:29;24.53;41.76
65472;DHT22;52068;50.710;14.492;2023-03-23T00:22:55;24.57;41.66
65472;DHT22;52068;50.710;14.492;2023-03-23T00:25:25;24.59;41.58
65472;DHT22;52068;50.710;14.492;2023-03-23T00:27:50;24.53;41.65
65472;DHT22;52068;50.710;14.492;2023-03-23T00:30:15;24.50;41.74
65472;DHT22;52068;50.710;14.492;2023-03-23T00:32:41;24.43;41.87
65472;DHT22;52068;50.710;14.492;2023-03-23T00:35:06;24.37;42.07
65472;DHT22;52068;50.710;14.492;2023-03-23T00:37:32;24.27;42.23
65472;DHT22;52068;50.710;14.492;2023-03-23T00:39:57;24.23;42.28
65472;DHT22;52068;50.710;14.492;2023-03-23T00:42:25;24.16;42.69
65472;DHT22;52068;50.710;14.492;2023-03-23T00:44:51;24.08;42.75
65472;DHT22;52068;50.710;14.492;2023-03-23T00:47:18;23.98;43.04
65472;DHT22;52068;50.710;14.492;2023-03-23T00:49:44;23.95;43.14
65472;DHT22;52068;50.710;14.492;2023-03-23T00:52:09;23.88;43.03
65472;DHT22;52068;50.710;14.492;2023-03-23T00:54:35;23.84;43.10
65472;DHT22;52068;50.710;14.492;2023-03-23T00:57:02;23.79;43.34
65472;DHT22;52068;50.710;14.492;2023-03-23T00:59:28;23.71;43.37
65472;DHT22;52068;50.710;14.492;2023-03-23T01:01:53;23.68;43.52
65472;DHT22;52068;50.710;14.492;2023-03-23T01:04:18;23.62;43.39
65472;DHT22;52068;50.710;14.492;2023-03-23T01:06:46;23.59;43.66
65472;DHT22;52068;50.710;14.492;2023-03-23T01:09:15;23.55;43.79
65472;DHT22;52068;50.710;14.492;2023-03-23T01:11:44;23.50;43.90
65472;DHT22;52068;50.710;14.492;2023-03-23T01:14:11;23.47;43.95
65472;DHT22;52068;50.710;14.492;2023-03-23T01:16:36;23.40;44.08
65472;DHT22;52068;50.710;14.492;2023-03-23T01:19:02;23.35;44.34
65472;DHT22;52068;50.710;14.492;2023-03-23T01:21:27;23.30;44.45
65472;DHT22;52068;50.710;14.492;2023-03-23T01:23:53;23.25;44.78
65472;DHT22;52068;50.710;14.492;2023-03-23T01:26:20;23.20;44.90
65472;DHT22;52068;50.710;14.492;2023-03-23T01:28:45;23.17;44.94
65472;DHT22;52068;50.710;14.492;2023-03-23T01:31:12;23.13;44.97
65472;DHT22;52068;50.710;14.492;2023-03-23T01:33:38;23.13;45.06
65472;DHT22;52068;50.710;14.492;2023-03-23T01:36:04;23.11;44.99
65472;DHT22;52068;50.710;14.492;2023-03-23T01:38:30;23.14;45.00
65472;DHT22;52068;50.710;14.492;2023-03-23T01:40:56;23.17;44.96
65472;DHT22;52068;50.710;14.492;2023-03-23T01:43:21;23.15;44.88
65472;DHT22;52068;50.710;14.492;2023-03-23T01:45:46;23.18;44.81
65472;DHT22;52068;50.710;14.492;2023-03-23T01:48:25;23.13;44.79
65472;DHT22;52068;50.710;14.492;2023-03-23T01:50:56;23.14;44.86
65472;DHT22;52068;50.710;14.492;2023-03-23T01:53:24;23.13;44.82
65472;DHT22;52068;50.710;14.492;2023-03-23T01:55:51;23.11;44.86
65472;DHT22;52068;50.710;14.492;2023-03-23T01:58:21;23.08;44.93
65472;DHT22;52068;50.710;14.492;2023-03-23T02:00:50;23.06;44.94
65472;DHT22;52068;50.710;14.492;2023-03-23T02:03:16;23.03;44.81
65472;DHT22;52068;50.710;14.492;2023-03-23T02:05:42;23.07;45.03
65472;DHT22;52068;50.710;14.492;2023-03-23T02:08:08;23.07;44.74
65472;DHT22;52068;50.710;14.492;2023-03-23T02:10:34;23.08;44.84
65472;DHT22;52068;50.710;14.492;2023-03-23T02:13:00;23.10;44.85
65472;DHT22;52068;50.710;14.492;2023-03-23T02:15:28;23.10;44.79
65472;DHT22;52068;50.710;14.492;2023-03-23T02:41:02;23.10;45.27
65472;DHT22;52068;50.710;14.492;2023-03-23T02:43:30;23.08;45.19
65472;DHT22;52068;50.710;14.492;2023-03-23T02:45:56;23.04;45.38
65472;DHT22;52068;50.710;14.492;2023-03-23T02:48:22;23.03;45.48
65472;DHT22;52068;50.710;14.492;2023-03-23T02:50:51;22.99;45.56
65472;DHT22;52068;50.710;14.492;2023-03-23T02:53:18;22.96;45.77
65472;DHT22;52068;50.710;14.492;2023-03-23T02:55:43;22.94;45.64
65472;DHT22;52068;50.710;14.492;2023-03-23T02:58:09;22.92;45.60
65472;DHT22;52068;50.710;14.492;2023-03-23T03:00:35;22.90;45.60
65472;DHT22;52068;50.710;14.492;2023-03-23T03:03:01;22.86;45.76
65472;DHT22;52068;50.710;14.492;2023-03-23T03:10:30;23.66;44.18
65472;DHT22;52068;50.710;14.492;2023-03-23T03:18:13;24.50;42.42
65472;DHT22;52068;50.710;14.492;2023-03-23T03:20:38;24.59;42.06
65472;DHT22;52068;50.710;14.492;2023-03-23T03:23:05;24.63;41.88
65472;DHT22;52068;50.710;14.492;2023-03-23T03:25:32;24.59;41.90
65472;DHT22;52068;50.710;14.492;2023-03-23T03:27:58;24.54;42.12
65472;DHT22;52068;50.710;14.492;2023-03-23T03:30:25;24.49;42.25
65472;DHT22;52068;50.710;14.492;2023-03-23T03:32:52;24.40;42.40
65472;DHT22;52068;50.710;14.492;2023-03-23T03:35:18;24.33;42.63
65472;DHT22;52068;50.710;14.492;2023-03-23T03:37:45;24.26;42.86
65472;DHT22;52068;50.710;14.492;2023-03-23T03:40:13;24.16;42.97
65472;DHT22;52068;50.710;14.492;2023-03-23T03:42:39;24.08;43.10
65472;DHT22;52068;50.710;14.492;2023-03-23T03:45:04;24.01;43.20
65472;DHT22;52068;50.710;14.492;2023-03-23T03:47:30;23.90;43.29
65472;DHT22;52068;50.710;14.492;2023-03-23T03:49:56;23.85;43.47
65472;DHT22;52068;50.710;14.492;2023-03-23T03:52:21;23.76;43.61
65472;DHT22;52068;50.710;14.492;2023-03-23T03:54:46;23.72;43.72
65472;DHT22;52068;50.710;14.492;2023-03-23T03:57:12;23.65;43.71
65472;DHT22;52068;50.710;14.492;2023-03-23T03:59:37;23.59;43.81
65472;DHT22;52068;50.710;14.492;2023-03-23T04:02:02;23.55;43.92
65472;DHT22;52068;50.710;14.492;2023-03-23T04:04:28;23.48;44.04
65472;DHT22;52068;50.710;14.492;2023-03-23T04:06:54;23.47;44.06
65472;DHT22;52068;50.710;14.492;2023-03-23T04:09:19;23.38;44.34
65472;DHT22;52068;50.710;14.492;2023-03-23T04:11:44;23.35;44.38
65472;DHT22;52068;50.710;14.492;2023-03-23T04:14:10;23.30;44.52
65472;DHT22;52068;50.710;14.492;2023-03-23T04:16:36;23.21;44.60
65472;DHT22;52068;50.710;14.492;2023-03-23T04:19:01;23.15;44.68
65472;DHT22;52068;50.710;14.492;2023-03-23T04:21:26;23.13;44.81
65472;DHT22;52068;50.710;14.492;2023-03-23T04:23:54;23.15;44.85
65472;DHT22;52068;50.710;14.492;2023-03-23T04:26:19;23.25;44.72
65472;DHT22;52068;50.710;14.492;2023-03-23T04:28:44;23.40;44.41
65472;DHT22;52068;50.710;14.492;2023-03-23T04:31:10;23.52;44.00
65472;DHT22;52068;50.710;14.492;2023-03-23T04:33:37;23.61;43.76
65472;DHT22;52068;50.710;14.492;2023-03-23T04:36:05;23.69;43.55
65472;DHT22;52068;50.710;14.492;2023-03-23T04:38:31;23.71;43.41
65472;DHT22;52068;50.710;14.492;2023-03-23T04:40:57;23.74;43.36
65472;DHT22;52068;50.710;14.492;2023-03-23T04:43:25;23.71;43.34
65472;DHT22;52068;50.710;14.492;2023-03-23T04:45:52;23.66;43.34
65472;DHT22;52068;50.710;14.492;2023-03-23T04:48:21;23.64;43.38
65472;DHT22;52068;50.710;14.492;2023-03-23T04:50:47;23.59;43.59
65472;DHT22;52068;50.710;14.492;2023-03-23T04:53:13;23.55;43.64
65472;DHT22;52068;50.710;14.492;2023-03-23T04:55:38;23.51;43.75
65472;DHT22;52068;50.710;14.492;2023-03-23T04:58:04;23.45;43.78
65472;DHT22;52068;50.710;14.492;2023-03-23T05:00:30;23.47;43.60
65472;DHT22;52068;50.710;14.492;2023-03-23T05:02:56;23.41;43.82
65472;DHT22;52068;50.710;14.492;2023-03-23T05:05:21;23.40;43.78
65472;DHT22;52068;50.710;14.492;2023-03-23T05:07:47;23.33;43.93
65472;DHT22;52068;50.710;14.492;2023-03-23T05:10:13;23.33;44.01
65472;DHT22;52068;50.710;14.492;2023-03-23T05:12:38;23.30;44.11
65472;DHT22;52068;50.710;14.492;2023-03-23T05:15:04;23.28;44.01
65472;DHT22;52068;50.710;14.492;2023-03-23T05:17:30;23.25;43.85
65472;DHT22;52068;50.710;14.492;2023-03-23T05:19:57;23.24;44.13
65472;DHT22;52068;50.710;14.492;2023-03-23T05:22:23;23.23;44.15
65472;DHT22;52068;50.710;14.492;2023-03-23T05:24:49;23.17;44.37
65472;DHT22;52068;50.710;14.492;2023-03-23T05:27:17;23.14;44.49
65472;DHT22;52068;50.710;14.492;2023-03-23T05:29:43;23.11;44.56
65472;DHT22;52068;50.710;14.492;2023-03-23T05:32:11;23.10;44.75
65472;DHT22;52068;50.710;14.492;2023-03-23T05:34:36;23.07;44.86
65472;DHT22;52068;50.710;14.492;2023-03-23T05:37:02;23.08;44.94
65472;DHT22;52068;50.710;14.492;2023-03-23T05:39:28;23.07;44.93
65472;DHT22;52068;50.710;14.492;2023-03-23T05:41:54;23.07;44.99
65472;DHT22;52068;50.710;14.492;2023-03-23T05:44:19;23.06;45.20
65472;DHT22;52068;50.710;14.492;2023-03-23T05:46:45;23.08;44.48
65472;DHT22;52068;50.710;14.492;2023-03-23T05:49:10;23.10;43.93
65472;DHT22;52068;50.710;14.492;2023-03-23T05:51:35;23.07;42.01
65472;DHT22;52068;50.710;14.492;2023-03-23T05:54:01;23.06;41.90
65472;DHT22;52068;50.710;14.492;2023-03-23T05:56:26;23.08;42.57
65472;DHT22;52068;50.710;14.492;2023-03-23T05:58:53;23.10;43.01
65472;DHT22;52068;50.710;14.492;2023-03-23T06:01:19;23.14;42.78
65472;DHT22;52068;50.710;14.492;2023-03-23T06:03:44;23.17;43.12
65472;DHT22;52068;50.710;14.492;2023-03-23T06:06:10;23.17;43.17
65472;DHT22;52068;50.710;14.492;2023-03-23T06:08:37;23.21;43.07
65472;DHT22;52068;50.710;14.492;2023-03-23T06:11:03;23.31;42.93
65472;DHT22;52068;50.710;14.492;2023-03-23T06:13:29;23.38;42.80
65472;DHT22;52068;50.710;14.492;2023-03-23T06:15:57;23.43;42.90
65472;DHT22;52068;50.710;14.492;2023-03-23T06:18:22;23.45;42.75
65472;DHT22;52068;50.710;14.492;2023-03-23T06:20:48;23.45;42.75
65472;DHT22;52068;50.710;14.492;2023-03-23T06:23:14;23.47;42.78
65472;DHT22;52068;50.710;14.492;2023-03-23T06:25:39;23.44;42.78
65472;DHT22;52068;50.710;14.492;2023-03-23T06:28:04;23.43;42.89
65472;DHT22;52068;50.710;14.492;2023-03-23T06:30:31;23.38;43.02
65472;DHT22;52068;50.710;14.492;2023-03-23T06:32:56;23.38;43.05
65472;DHT22;52068;50.710;14.492;2023-03-23T06:35:22;23.37;43.13
65472;DHT22;52068;50.710;14.492;2023-03-23T06:37:47;23.35;43.20
65472;DHT22;52068;50.710;14.492;2023-03-23T06:40:12;23.31;43.23
65472;DHT22;52068;50.710;14.492;2023-03-23T06:42:38;23.28;43.23
65472;DHT22;52068;50.710;14.492;2023-03-23T06:45:03;23.24;43.33
65472;DHT22;52068;50.710;14.492;2023-03-23T06:47:29;23.21;43.23
65472;DHT22;52068;50.710;14.492;2023-03-23T06:49:55;23.18;43.17
65472;DHT22;52068;50.710;14.492;2023-03-23T06:52:21;23.15;43.26
65472;DHT22;52068;50.710;14.492;2023-03-23T06:54:47;23.13;43.32
65472;DHT22;52068;50.710;14.492;2023-03-23T06:57:13;23.13;43.35
65472;DHT22;52068;50.710;14.492;2023-03-23T06:59:38;23.10;43.32
65472;DHT22;52068;50.710;14.492;2023-03-23T07:02:03;23.08;43.36
65472;DHT22;52068;50.710;14.492;2023-03-23T07:04:29;23.13;43.26
65472;DHT22;52068;50.710;14.492;2023-03-23T07:06:55;23.28;42.90
65472;DHT22;52068;50.710;14.492;2023-03-23T07:09:21;23.48;42.50
65472;DHT22;52068;50.710;14.492;2023-03-23T07:11:47;23.68;42.05
65472;DHT22;52068;50.710;14.492;2023-03-23T07:14:12;23.82;41.69
65472;DHT22;52068;50.710;14.492;2023-03-23T07:16:38;23.95;41.47
65472;DHT22;52068;50.710;14.492;2023-03-23T07:19:03;23.99;41.31
65472;DHT22;52068;50.710;14.492;2023-03-23T07:21:28;24.02;41.29
65472;DHT22;52068;50.710;14.492;2023-03-23T07:23:53;24.03;41.20
65472;DHT22;52068;50.710;14.492;2023-03-23T07:26:19;24.03;41.23
65472;DHT22;52068;50.710;14.492;2023-03-23T07:28:45;23.99;41.32
65472;DHT22;52068;50.710;14.492;2023-03-23T07:31:11;23.98;41.44
65472;DHT22;52068;50.710;14.492;2023-03-23T07:33:37;23.95;41.51
65472;DHT22;52068;50.710;14.492;2023-03-23T07:36:02;23.99;41.62
65472;DHT22;52068;50.710;14.492;2023-03-23T07:38:28;23.95;41.65
65472;DHT22;52068;50.710;14.492;2023-03-23T07:40:54;23.93;41.76
65472;DHT22;52068;50.710;14.492;2023-03-23T07:43:20;23.95;41.85
65472;DHT22;52068;50.710;14.492;2023-03-23T07:45:46;23.90;41.95
65472;DHT22;52068;50.710;14.492;2023-03-23T07:48:11;23.90;42.02
65472;DHT22;52068;50.710;14.492;2023-03-23T07:50:37;23.89;42.14
65472;DHT22;52068;50.710;14.492;2023-03-23T07:53:03;23.86;42.13
65472;DHT22;52068;50.710;14.492;2023-03-23T07:55:28;23.79;42.19
65472;DHT22;52068;50.710;14.492;2023-03-23T07:57:54;23.78;42.36
65472;DHT22;52068;50.710;14.492;2023-03-23T08:00:19;23.78;42.43
65472;DHT22;52068;50.710;14.492;2023-03-23T08:02:46;23.75;42.49
65472;DHT22;52068;50.710;14.492;2023-03-23T08:05:12;23.71;42.52
65472;DHT22;52068;50.710;14.492;2023-03-23T08:07:38;23.71;42.68
65472;DHT22;52068;50.710;14.492;2023-03-23T08:10:04;23.64;42.70
65472;DHT22;52068;50.710;14.492;2023-03-23T08:12:30;23.64;42.74
65472;DHT22;52068;50.710;14.492;2023-03-23T08:14:55;23.59;42.84
65472;DHT22;52068;50.710;14.492;2023-03-23T08:17:20;23.58;42.86
65472;DHT22;52068;50.710;14.492;2023-03-23T08:19:47;23.57;42.96
65472;DHT22;52068;50.710;14.492;2023-03-23T08:22:12;23.52;42.98
65472;DHT22;52068;50.710;14.492;2023-03-23T08:24:37;23.52;43.10
65472;DHT22;52068;50.710;14.492;2023-03-23T08:27:03;23.51;43.17
65472;DHT22;52068;50.710;14.492;2023-03-23T08:29:29;23.47;43.22
65472;DHT22;52068;50.710;14.492;2023-03-23T08:31:54;23.47;43.24
65472;DHT22;52068;50.710;14.492;2023-03-23T08:34:20;23.45;43.33
65472;DHT22;52068;50.710;14.492;2023-03-23T08:36:45;23.50;43.34
65472;DHT22;52068;50.710;14.492;2023-03-23T08:39:11;23.54;43.23
65472;DHT22;52068;50.710;14.492;2023-03-23T08:41:36;23.58;43.11
65472;DHT22;52068;50.710;14.492;2023-03-23T08:44:02;23.64;42.95
65472;DHT22;52068;50.710;14.492;2023-03-23T08:46:28;23.68;42.82
65472;DHT22;52068;50.710;14.492;2023-03-23T08:48:53;23.71;42.66
65472;DHT22;52068;50.710;14.492;2023-03-23T08:51:19;23.72;42.60
65472;DHT22;52068;50.710;14.492;2023-03-23T08:53:44;23.74;42.50
65472;DHT22;52068;50.710;14.492;2023-03-23T08:56:10;23.75;42.39
65472;DHT22;52068;50.710;14.492;2023-03-23T08:58:37;23.72;41.93
65472;DHT22;52068;50.710;14.492;2023-03-23T09:01:03;23.72;41.94
65472;DHT22;52068;50.710;14.492;2023-03-23T09:03:31;23.69;42.19
65472;DHT22;52068;50.710;14.492;2023-03-23T09:06:00;23.68;42.26
65472;DHT22;52068;50.710;14.492;2023-03-23T09:08:26;23.69;42.08
65472;DHT22;52068;50.710;14.492;2023-03-23T09:10:54;23.68;42.18
65472;DHT22;52068;50.710;14.492;2023-03-23T09:13:19;23.69;42.11
65472;DHT22;52068;50.710;14.492;2023-03-23T09:15:45;23.68;42.10
65472;DHT22;52068;50.710;14.492;2023-03-23T09:18:11;23.72;42.09
65472;DHT22;52068;50.710;14.492;2023-03-23T09:20:37;23.71;42.09
65472;DHT22;52068;50.710;14.492;2023-03-23T09:23:03;23.71;42.04
65472;DHT22;52068;50.710;14.492;2023-03-23T09:25:29;23.72;41.97
65472;DHT22;52068;50.710;14.492;2023-03-23T09:27:55;23.69;42.00
65472;DHT22;52068;50.710;14.492;2023-03-23T09:30:22;23.68;41.95
65472;DHT22;52068;50.710;14.492;2023-03-23T09:32:47;23.66;41.32
65472;DHT22;52068;50.710;14.492;2023-03-23T09:35:16;23.61;41.15
65472;DHT22;52068;50.710;14.492;2023-03-23T09:37:42;23.58;41.52
65472;DHT22;52068;50.710;14.492;2023-03-23T09:40:13;23.55;41.49
65472;DHT22;52068;50.710;14.492;2023-03-23T09:48:31;23.41;41.35
65472;DHT22;52068;50.710;14.492;2023-03-23T09:50:37;23.41;41.49
65472;DHT22;52068;50.710;14.492;2023-03-23T09:53:09;23.37;41.65
65472;DHT22;52068;50.710;14.492;2023-03-23T09:55:35;23.34;41.62
65472;DHT22;52068;50.710;14.492;2023-03-23T09:58:03;23.31;41.89
65472;DHT22;52068;50.710;14.492;2023-03-23T10:00:37;23.35;41.79
65472;DHT22;52068;50.710;14.492;2023-03-23T10:05:44;23.57;41.05
65472;DHT22;52068;50.710;14.492;2023-03-23T10:08:11;23.76;37.31
65472;DHT22;52068;50.710;14.492;2023-03-23T10:13:13;23.69;36.97
65472;DHT22;52068;50.710;14.492;2023-03-23T10:15:42;23.59;35.67
65472;DHT22;52068;50.710;14.492;2023-03-23T10:23:05;26.76;32.55
65472;DHT22;52068;50.710;14.492;2023-03-23T10:25:35;28.53;30.36
65472;DHT22;52068;50.710;14.492;2023-03-23T10:28:04;30.10;28.33
65472;DHT22;52068;50.710;14.492;2023-03-23T10:30:42;31.55;26.72
65472;DHT22;52068;50.710;14.492;2023-03-23T10:36:00;33.36;24.65
65472;DHT22;52068;50.710;14.492;2023-03-23T10:38:45;33.72;24.29
65472;DHT22;52068;50.710;14.492;2023-03-23T10:41:13;33.65;24.35
65472;DHT22;52068;50.710;14.492;2023-03-23T10:43:39;33.41;24.74
65472;DHT22;52068;50.710;14.492;2023-03-23T10:48:43;32.79;25.57
65472;DHT22;52068;50.710;14.492;2023-03-23T10:51:12;32.37;26.08
65472;DHT22;52068;50.710;14.492;2023-03-23T10:53:45;31.90;26.70
65472;DHT22;52068;50.710;14.492;2023-03-23T10:56:27;31.52;27.18
65472;DHT22;52068;50.710;14.492;2023-03-23T10:58:53;31.05;27.70
65472;DHT22;52068;50.710;14.492;2023-03-23T11:01:19;30.71;27.99
65472;DHT22;52068;50.710;14.492;2023-03-23T11:03:46;30.33;28.76
65472;DHT22;52068;50.710;14.492;2023-03-23T11:06:23;29.98;28.96
65472;DHT22;52068;50.710;14.492;2023-03-23T11:08:56;29.61;29.35
65472;DHT22;52068;50.710;14.492;2023-03-23T11:11:27;29.26;29.80
65472;DHT22;52068;50.710;14.492;2023-03-23T11:13:57;28.94;30.45
65472;DHT22;52068;50.710;14.492;2023-03-23T11:18:50;28.36;31.13
65472;DHT22;52068;50.710;14.492;2023-03-23T11:21:15;28.11;31.67
65472;DHT22;52068;50.710;14.492;2023-03-23T11:23:42;27.83;32.29
65472;DHT22;52068;50.710;14.492;2023-03-23T11:26:15;27.58;32.64
65472;DHT22;52068;50.710;14.492;2023-03-23T11:29:27;27.35;33.02
65472;DHT22;52068;50.710;14.492;2023-03-23T11:31:29;27.15;33.54
65472;DHT22;52068;50.710;14.492;2023-03-23T11:33:58;26.99;34.01
65472;DHT22;52068;50.710;14.492;2023-03-23T11:36:28;26.79;34.29
65472;DHT22;52068;50.710;14.492;2023-03-23T11:38:54;26.59;34.62
65472;DHT22;52068;50.710;14.492;2023-03-23T11:41:23;26.41;34.87
65472;DHT22;52068;50.710;14.492;2023-03-23T11:43:51;26.30;35.30
65472;DHT22;52068;50.710;14.492;2023-03-23T11:54:02;25.70;36.45
65472;DHT22;52068;50.710;14.492;2023-03-23T11:56:30;25.55;36.80
65472;DHT22;52068;50.710;14.492;2023-03-23T11:58:58;25.42;37.01
65472;DHT22;52068;50.710;14.492;2023-03-23T12:01:40;25.22;37.49
65472;DHT22;52068;50.710;14.492;2023-03-23T12:04:19;25.14;37.74
65472;DHT22;52068;50.710;14.492;2023-03-23T12:07:09;25.03;37.86
65472;DHT22;52068;50.710;14.492;2023-03-23T12:22:24;24.59;39.44
65472;DHT22;52068;50.710;14.492;2023-03-23T12:35:10;24.30;40.31
65472;DHT22;52068;50.710;14.492;2023-03-23T12:45:24;24.10;40.80
65472;DHT22;52068;50.710;14.492;2023-03-23T12:47:53;24.06;40.84
65472;DHT22;52068;50.710;14.492;2023-03-23T12:50:32;24.01;40.92
65472;DHT22;52068;50.710;14.492;2023-03-23T12:53:08;23.98;40.97
65472;DHT22;52068;50.710;14.492;2023-03-23T12:55:42;23.96;41.04
65472;DHT22;52068;50.710;14.492;2023-03-23T12:58:11;23.95;41.05
65472;DHT22;52068;50.710;14.492;2023-03-23T13:00:52;23.88;41.09
65472;DHT22;52068;50.710;14.492;2023-03-23T13:03:38;23.86;41.14
65472;DHT22;52068;50.710;14.492;2023-03-23T13:08:42;23.79;41.25
65472;DHT22;52068;50.710;14.492;2023-03-23T13:11:15;23.75;41.33
65472;DHT22;52068;50.710;14.492;2023-03-23T13:13:52;23.72;41.43
65472;DHT22;52068;50.710;14.492;2023-03-23T13:16:40;23.71;41.61
65472;DHT22;52068;50.710;14.492;2023-03-23T13:21:36;23.68;41.71
65472;DHT22;52068;50.710;14.492;2023-03-23T13:24:04;23.65;41.83
65472;DHT22;52068;50.710;14.492;2023-03-23T13:26:30;23.66;41.79
65472;DHT22;52068;50.710;14.492;2023-03-23T13:28:57;23.71;41.77
65472;DHT22;52068;50.710;14.492;2023-03-23T13:31:27;23.74;41.82
65472;DHT22;52068;50.710;14.492;2023-03-23T13:38:55;23.72;41.93
65472;DHT22;52068;50.710;14.492;2023-03-23T13:41:21;23.71;42.07
65472;DHT22;52068;50.710;14.492;2023-03-23T13:43:47;23.74;42.17
65472;DHT22;52068;50.710;14.492;2023-03-23T13:49:02;23.66;42.40
65472;DHT22;52068;50.710;14.492;2023-03-23T13:55:08;23.68;42.59
65472;DHT22;52068;50.710;14.492;2023-03-23T13:57:02;23.65;42.90
65472;DHT22;52068;50.710;14.492;2023-03-23T13:59:46;23.61;42.88
65472;DHT22;52068;50.710;14.492;2023-03-23T14:04:52;23.59;42.98
65472;DHT22;52068;50.710;14.492;2023-03-23T14:07:17;23.57;43.01
65472;DHT22;52068;50.710;14.492;2023-03-23T14:09:49;23.54;42.85
65472;DHT22;52068;50.710;14.492;2023-03-23T14:12:17;23.55;42.96
65472;DHT22;52068;50.710;14.492;2023-03-23T14:14:45;23.52;42.92
65472;DHT22;52068;50.710;14.492;2023-03-23T14:17:22;23.51;43.04
65472;DHT22;52068;50.710;14.492;2023-03-23T14:19:51;23.51;42.84
65472;DHT22;52068;50.710;14.492;2023-03-23T14:22:38;23.45;42.95
65472;DHT22;52068;50.710;14.492;2023-03-23T14:25:13;23.47;42.95
65472;DHT22;52068;50.710;14.492;2023-03-23T14:27:39;23.44;43.00
65472;DHT22;52068;50.710;14.492;2023-03-23T14:30:08;23.48;43.20
65472;DHT22;52068;50.710;14.492;2023-03-23T14:32:33;23.50;43.06
65472;DHT22;52068;50.710;14.492;2023-03-23T14:35:00;23.54;42.82
65472;DHT22;52068;50.710;14.492;2023-03-23T14:37:30;23.59;42.66
65472;DHT22;52068;50.710;14.492;2023-03-23T14:39:56;23.64;42.52
65472;DHT22;52068;50.710;14.492;2023-03-23T14:42:30;23.69;42.48
65472;DHT22;52068;50.710;14.492;2023-03-23T14:44:56;23.72;42.49
65472;DHT22;52068;50.710;14.492;2023-03-23T14:47:23;23.74;42.21
65472;DHT22;52068;50.710;14.492;2023-03-23T14:49:55;23.74;42.21
65472;DHT22;52068;50.710;14.492;2023-03-23T14:52:21;23.74;42.10
65472;DHT22;52068;50.710;14.492;2023-03-23T14:54:47;23.74;42.36
65472;DHT22;52068;50.710;14.492;2023-03-23T14:59:45;23.71;41.97
65472;DHT22;52068;50.710;14.492;2023-03-23T15:02:11;23.71;41.86
65472;DHT22;52068;50.710;14.492;2023-03-23T15:04:38;23.72;41.99
65472;DHT22;52068;50.710;14.492;2023-03-23T15:07:03;23.74;42.17
65472;DHT22;52068;50.710;14.492;2023-03-23T15:09:29;23.74;42.17
65472;DHT22;52068;50.710;14.492;2023-03-23T15:11:56;23.76;41.85
65472;DHT22;52068;50.710;14.492;2023-03-23T15:14:28;23.74;42.04
65472;DHT22;52068;50.710;14.492;2023-03-23T15:16:54;23.71;42.19
65472;DHT22;52068;50.710;14.492;2023-03-23T15:19:31;23.68;42.15
65472;DHT22;52068;50.710;14.492;2023-03-23T15:22:04;23.66;42.36
65472;DHT22;52068;50.710;14.492;2023-03-23T15:24:36;23.65;42.70
65472;DHT22;52068;50.710;14.492;2023-03-23T15:27:03;23.50;37.66
65472;DHT22;52068;50.710;14.492;2023-03-23T15:29:34;23.31;37.32
65472;DHT22;52068;50.710;14.492;2023-03-23T15:32:10;23.11;37.97
65472;DHT22;52068;50.710;14.492;2023-03-23T15:34:35;23.30;38.67
65472;DHT22;52068;50.710;14.492;2023-03-23T15:37:05;24.43;37.31
65472;DHT22;52068;50.710;14.492;2023-03-23T15:39:30;26.20;34.64
65472;DHT22;52068;50.710;14.492;2023-03-23T15:41:56;27.87;32.10
65472;DHT22;52068;50.710;14.492;2023-03-23T15:46:49;30.80;27.89
65472;DHT22;52068;50.710;14.492;2023-03-23T15:49:15;31.83;26.40
65472;DHT22;52068;50.710;14.492;2023-03-23T15:51:41;32.58;25.57
65472;DHT22;52068;50.710;14.492;2023-03-23T15:54:08;32.86;25.33
65472;DHT22;52068;50.710;14.492;2023-03-23T15:56:34;32.78;25.46
65472;DHT22;52068;50.710;14.492;2023-03-23T15:58:59;32.60;25.88
65472;DHT22;52068;50.710;14.492;2023-03-23T16:01:28;32.30;26.11
65472;DHT22;52068;50.710;14.492;2023-03-23T16:06:23;31.66;26.93
65472;DHT22;52068;50.710;14.492;2023-03-23T16:08:49;31.26;27.50
65472;DHT22;52068;50.710;14.492;2023-03-23T16:11:15;30.91;28.01
65472;DHT22;52068;50.710;14.492;2023-03-23T16:13:41;30.56;28.52
65472;DHT22;52068;50.710;14.492;2023-03-23T16:19:01;29.76;29.56
65472;DHT22;52068;50.710;14.492;2023-03-23T16:21:27;29.44;30.14
65472;DHT22;52068;50.710;14.492;2023-03-23T16:23:52;29.08;30.71
65472;DHT22;52068;50.710;14.492;2023-03-23T16:26:18;28.73;31.22
65472;DHT22;52068;50.710;14.492;2023-03-23T16:28:43;28.42;31.77
65472;DHT22;52068;50.710;14.492;2023-03-23T16:31:08;28.15;32.35
65472;DHT22;52068;50.710;14.492;2023-03-23T16:33:34;27.90;32.80
65472;DHT22;52068;50.710;14.492;2023-03-23T16:36:00;27.67;33.18
65472;DHT22;52068;50.710;14.492;2023-03-23T16:38:25;27.46;33.47
65472;DHT22;52068;50.710;14.492;2023-03-23T16:40:50;27.22;33.86
65472;DHT22;52068;50.710;14.492;2023-03-23T16:43:16;27.02;34.18
65472;DHT22;52068;50.710;14.492;2023-03-23T16:45:42;26.78;34.52
65472;DHT22;52068;50.710;14.492;2023-03-23T16:48:07;26.55;34.81
65472;DHT22;52068;50.710;14.492;2023-03-23T16:50:33;26.34;35.12
65472;DHT22;52068;50.710;14.492;2023-03-23T16:52:59;26.16;35.45
65472;DHT22;52068;50.710;14.492;2023-03-23T16:55:24;26.00;35.89
65472;DHT22;52068;50.710;14.492;2023-03-23T16:57:51;25.82;36.31
65472;DHT22;52068;50.710;14.492;2023-03-23T17:00:17;25.65;36.48
65472;DHT22;52068;50.710;14.492;2023-03-23T17:02:46;25.49;36.59
65472;DHT22;52068;50.710;14.492;2023-03-23T17:05:12;25.34;36.83
65472;DHT22;52068;50.710;14.492;2023-03-23T17:07:38;25.22;37.16
65472;DHT22;52068;50.710;14.492;2023-03-23T17:10:04;25.11;37.34
65472;DHT22;52068;50.710;14.492;2023-03-23T17:12:30;24.98;37.59
65472;DHT22;52068;50.710;14.492;2023-03-23T17:14:55;24.87;37.83
65472;DHT22;52068;50.710;14.492;2023-03-23T17:17:21;24.80;37.96
65472;DHT22;52068;50.710;14.492;2023-03-23T17:19:47;24.70;38.18